createdAt,value
2018-12-08T00:00:00.104Z,7.53
2018-12-08T00:03:03.865Z,7.58
2018-12-08T00:06:07.234Z,7.58
2018-12-08T00:09:10.532Z,7.60
2018-12-08T00:12:13.865Z,7.59
2018-12-08T00:15:17.233Z,7.55
2018-12-08T00:18:20.626Z,7.50
2018-12-08T00:21:24.034Z,7.48
2018-12-08T00:24:27.331Z,7.36
2018-12-08T00:27:30.634Z,7.12
2018-12-08T00:30:51.458Z,6.92
2018-12-08T00:33:54.746Z,6.63
2018-12-08T00:36:58.069Z,6.08
2018-12-08T00:40:01.436Z,5.93
2018-12-08T00:43:04.773Z,5.78
2018-12-08T00:46:08.063Z,5.71
2018-12-08T00:49:11.619Z,5.65
2018-12-08T00:52:15.039Z,5.60
2018-12-08T00:55:18.440Z,5.56
2018-12-08T00:58:21.734Z,5.56
2018-12-08T01:01:25.103Z,5.53
2018-12-08T01:04:28.436Z,5.45
2018-12-08T01:07:31.766Z,5.45
2018-12-08T01:10:35.073Z,5.43
2018-12-08T01:13:38.373Z,5.41
2018-12-08T01:16:41.933Z,5.38
2018-12-08T01:19:45.299Z,5.44
2018-12-08T01:22:48.701Z,5.46
2018-12-08T01:25:52.002Z,5.53
2018-12-08T01:28:55.395Z,5.59
2018-12-08T01:31:58.755Z,5.56
2018-12-08T01:35:02.048Z,5.56
2018-12-08T01:38:05.494Z,5.63
2018-12-08T01:41:08.842Z,5.74
2018-12-08T01:44:12.220Z,5.75
2018-12-08T01:47:15.572Z,5.75
2018-12-08T01:50:18.953Z,5.74
2018-12-08T01:53:22.364Z,5.74
2018-12-08T01:56:25.770Z,5.76
2018-12-08T01:59:29.094Z,5.73
2018-12-08T02:02:32.390Z,5.75
2018-12-08T02:05:35.694Z,5.70
2018-12-08T02:08:39.089Z,5.68
2018-12-08T02:11:42.494Z,5.67
2018-12-08T02:14:45.785Z,5.62
2018-12-08T02:17:49.109Z,5.56
2018-12-08T02:20:52.481Z,5.57
2018-12-08T02:23:55.813Z,5.54
2018-12-08T02:26:59.150Z,5.43
2018-12-08T02:30:02.681Z,5.44
2018-12-08T02:33:06.173Z,5.57
2018-12-08T02:36:09.572Z,5.63
2018-12-08T02:39:12.974Z,5.64
2018-12-08T02:42:16.486Z,5.65
2018-12-08T02:45:19.807Z,5.68
2018-12-08T02:48:23.287Z,5.64
2018-12-08T02:51:26.692Z,5.61
2018-12-08T02:54:29.987Z,5.56
2018-12-08T02:57:33.358Z,5.48
2018-12-08T03:00:36.793Z,5.42
2018-12-08T03:03:40.086Z,5.43
2018-12-08T03:06:43.391Z,5.46
2018-12-08T03:09:46.781Z,5.47
2018-12-08T03:12:50.183Z,5.41
2018-12-08T03:15:53.486Z,5.38
2018-12-08T03:18:56.782Z,5.33
2018-12-08T03:22:00.182Z,5.36
2018-12-08T03:25:03.680Z,5.40
2018-12-08T03:28:07.073Z,5.30
2018-12-08T03:31:10.427Z,5.28
2018-12-08T03:34:13.874Z,5.34
2018-12-08T03:37:17.186Z,5.29
2018-12-08T03:40:20.570Z,5.12
2018-12-08T03:43:23.974Z,5.00
2018-12-08T03:46:27.440Z,4.94
2018-12-08T03:49:31.818Z,4.84
2018-12-08T03:52:35.204Z,4.82
2018-12-08T03:55:38.543Z,4.74
2018-12-08T03:58:41.893Z,4.77
2018-12-08T04:01:45.293Z,4.71
2018-12-08T04:04:48.626Z,4.74
2018-12-08T04:07:51.985Z,4.71
2018-12-08T04:10:55.401Z,4.72
2018-12-08T04:13:58.799Z,4.75
2018-12-08T04:17:02.200Z,4.76
2018-12-08T04:20:05.705Z,4.75
2018-12-08T04:23:09.152Z,4.69
2018-12-08T04:26:12.447Z,4.71
2018-12-08T04:29:15.782Z,4.79
2018-12-08T04:32:19.200Z,4.76
2018-12-08T04:35:22.585Z,4.75
2018-12-08T04:38:26.315Z,4.78
2018-12-08T04:41:29.610Z,4.72
2018-12-08T04:44:33.731Z,4.68
2018-12-08T04:47:37.113Z,4.76
2018-12-08T04:50:40.426Z,4.71
2018-12-08T04:53:43.723Z,4.59
2018-12-08T04:56:47.051Z,4.53
2018-12-08T04:59:50.406Z,4.47
2018-12-08T05:02:53.706Z,4.33
2018-12-08T05:05:57.008Z,4.20
2018-12-08T05:09:00.398Z,4.30
2018-12-08T05:12:03.906Z,4.41
2018-12-08T05:15:07.302Z,4.45
2018-12-08T05:18:10.608Z,4.48
2018-12-08T05:21:13.938Z,4.60
2018-12-08T05:24:18.165Z,4.59
2018-12-08T05:27:22.116Z,4.62
2018-12-08T05:30:25.554Z,4.60
2018-12-08T05:33:28.945Z,4.45
2018-12-08T05:36:32.335Z,4.32
2018-12-08T05:39:35.738Z,4.25
2018-12-08T05:42:39.144Z,4.10
2018-12-08T05:45:42.482Z,4.08
2018-12-08T05:48:45.814Z,4.13
2018-12-08T05:51:49.119Z,4.18
2018-12-08T05:54:52.438Z,4.15
2018-12-08T05:57:55.826Z,4.04
2018-12-08T06:00:59.154Z,4.00
2018-12-08T06:04:02.485Z,4.00
2018-12-08T06:07:05.851Z,3.98
2018-12-08T06:10:10.186Z,3.97
2018-12-08T06:13:13.499Z,3.97
2018-12-08T06:16:16.793Z,4.01
2018-12-08T06:19:20.290Z,3.92
2018-12-08T06:22:23.637Z,3.85
2018-12-08T06:25:28.006Z,3.86
2018-12-08T06:28:31.338Z,3.68
2018-12-08T06:31:34.635Z,3.85
2018-12-08T06:34:37.941Z,3.84
2018-12-08T06:37:41.246Z,3.84
2018-12-08T06:40:44.537Z,3.79
2018-12-08T06:43:47.839Z,3.74
2018-12-08T06:46:51.177Z,3.76
2018-12-08T06:49:54.475Z,3.76
2018-12-08T06:52:57.813Z,3.65
2018-12-08T06:56:01.182Z,3.54
2018-12-08T06:59:04.516Z,3.53
2018-12-08T07:02:07.822Z,3.68
2018-12-08T07:05:11.134Z,3.67
2018-12-08T07:08:14.530Z,3.74
2018-12-08T07:11:17.835Z,3.57
2018-12-08T07:14:21.139Z,3.68
2018-12-08T07:17:24.514Z,3.76
2018-12-08T07:20:27.814Z,3.76
2018-12-08T07:23:31.122Z,3.87
2018-12-08T07:26:34.449Z,3.89
2018-12-08T07:29:37.783Z,4.02
2018-12-08T07:32:41.106Z,4.16
2018-12-08T07:35:44.542Z,4.31
2018-12-08T07:38:47.967Z,4.42
2018-12-08T07:41:51.330Z,4.42
2018-12-08T07:44:54.630Z,4.41
2018-12-08T07:47:57.926Z,4.59
2018-12-08T07:51:01.263Z,4.75
2018-12-08T07:54:04.666Z,4.88
2018-12-08T07:57:07.999Z,4.89
2018-12-08T08:00:11.411Z,4.97
2018-12-08T08:03:14.706Z,4.97
2018-12-08T08:06:18.009Z,4.98
2018-12-08T08:09:21.307Z,5.04
2018-12-08T08:12:24.601Z,5.08
2018-12-08T08:15:27.982Z,5.17
2018-12-08T08:18:31.300Z,5.23
2018-12-08T08:21:34.705Z,5.29
2018-12-08T08:24:37.991Z,5.40
2018-12-08T08:27:41.322Z,5.49
2018-12-08T08:30:44.665Z,5.60
2018-12-08T08:33:47.957Z,5.71
2018-12-08T08:36:51.332Z,5.66
2018-12-08T08:39:54.645Z,5.66
2018-12-08T08:42:57.938Z,5.73
2018-12-08T08:46:01.349Z,5.76
2018-12-08T08:49:04.729Z,5.79
2018-12-08T08:52:08.035Z,5.79
2018-12-08T08:55:11.379Z,5.82
2018-12-08T08:58:14.731Z,5.88
2018-12-08T09:01:18.070Z,5.90
2018-12-08T09:04:21.426Z,5.93
2018-12-08T09:07:24.725Z,5.84
2018-12-08T09:10:28.073Z,5.87
2018-12-08T09:13:31.405Z,5.91
2018-12-08T09:16:34.715Z,5.98
2018-12-08T09:19:38.053Z,6.05
2018-12-08T09:22:41.421Z,6.17
2018-12-08T09:25:44.773Z,6.27
2018-12-08T09:28:48.084Z,6.28
2018-12-08T09:31:51.530Z,6.39
2018-12-08T09:34:54.829Z,6.47
2018-12-08T09:37:58.134Z,6.40
2018-12-08T09:41:01.446Z,6.50
2018-12-08T09:44:04.856Z,6.58
2018-12-08T09:47:08.193Z,6.67
2018-12-08T09:50:11.532Z,6.67
2018-12-08T09:53:16.990Z,6.72
2018-12-08T09:56:20.322Z,6.87
2018-12-08T09:59:23.617Z,6.92
2018-12-08T10:02:27.001Z,7.10
2018-12-08T10:05:30.336Z,7.29
2018-12-08T10:08:33.782Z,7.23
2018-12-08T10:11:37.093Z,7.21
2018-12-08T10:14:40.397Z,7.01
2018-12-08T10:17:43.697Z,6.98
2018-12-08T10:20:47.038Z,6.96
2018-12-08T10:23:50.398Z,7.05
2018-12-08T10:26:53.847Z,7.13
2018-12-08T10:29:57.177Z,7.10
2018-12-08T10:33:00.510Z,7.18
2018-12-08T10:36:03.878Z,7.25
2018-12-08T10:39:08.016Z,7.37
2018-12-08T10:42:13.747Z,7.49
2018-12-08T10:45:17.107Z,7.35
2018-12-08T10:48:20.501Z,7.29
2018-12-08T10:51:23.816Z,7.26
2018-12-08T10:54:27.151Z,7.07
2018-12-08T10:57:30.489Z,6.87
2018-12-08T11:00:39.358Z,6.80
2018-12-08T11:03:47.569Z,6.76
2018-12-08T11:06:50.866Z,6.79
2018-12-08T11:09:54.350Z,6.81
2018-12-08T11:12:57.694Z,6.86
2018-12-08T11:16:00.994Z,6.95
2018-12-08T11:19:04.410Z,7.05
2018-12-08T11:22:07.748Z,7.26
2018-12-08T11:25:11.103Z,7.38
2018-12-08T11:28:14.518Z,7.51
2018-12-08T11:31:17.858Z,7.62
2018-12-08T11:34:21.186Z,7.66
2018-12-08T11:37:24.586Z,7.82
2018-12-08T11:40:27.883Z,8.07
2018-12-08T11:43:31.183Z,8.02
2018-12-08T11:46:34.518Z,7.83
2018-12-08T11:49:37.970Z,7.66
2018-12-08T11:52:41.318Z,7.57
2018-12-08T11:55:44.626Z,7.58
2018-12-08T11:58:47.939Z,7.74
2018-12-08T12:01:51.376Z,8.05
2018-12-08T12:04:54.678Z,8.23
2018-12-08T12:07:58.041Z,8.32
2018-12-08T12:11:01.363Z,8.20
2018-12-08T12:14:07.013Z,8.06
2018-12-08T12:20:18.980Z,8.20
2018-12-08T12:23:22.345Z,8.17
2018-12-08T12:26:26.602Z,8.18
2018-12-08T12:29:30.031Z,8.22
2018-12-08T12:32:33.409Z,8.20
2018-12-08T12:35:36.810Z,8.21
2018-12-08T12:38:40.126Z,8.28
2018-12-08T12:41:43.443Z,8.38
2018-12-08T12:44:46.846Z,8.15
2018-12-08T12:47:50.160Z,8.17
2018-12-08T12:50:53.571Z,8.12
2018-12-08T12:53:57.235Z,8.04
2018-12-08T12:57:00.629Z,7.95
2018-12-08T13:00:07.310Z,7.98
2018-12-08T13:03:10.637Z,7.93
2018-12-08T13:06:14.087Z,7.85
2018-12-08T13:09:17.404Z,7.87
2018-12-08T13:12:20.818Z,7.83
2018-12-08T13:15:24.129Z,7.89
2018-12-08T13:18:27.542Z,7.94
2018-12-08T13:21:30.950Z,7.89
2018-12-08T13:24:34.298Z,7.96
2018-12-08T13:27:37.593Z,7.87
2018-12-08T13:30:40.930Z,7.83
2018-12-08T13:33:44.266Z,7.78
2018-12-08T13:36:47.629Z,7.71
2018-12-08T13:39:50.927Z,7.67
2018-12-08T13:42:54.343Z,7.71
2018-12-08T13:45:57.713Z,7.70
2018-12-08T13:49:01.033Z,7.60
2018-12-08T13:52:04.522Z,7.41
2018-12-08T13:55:08.235Z,7.31
2018-12-08T13:58:11.529Z,7.23
2018-12-08T14:01:15.351Z,7.36
2018-12-08T14:04:19.963Z,7.45
2018-12-08T14:07:23.439Z,7.53
2018-12-08T14:10:26.949Z,7.56
2018-12-08T14:13:30.325Z,7.62
2018-12-08T14:16:34.062Z,7.59
2018-12-08T14:19:37.377Z,7.65
2018-12-08T14:22:40.683Z,7.63
2018-12-08T14:25:45.254Z,7.61
2018-12-08T14:28:48.798Z,7.54
2018-12-08T14:31:52.434Z,7.52
2018-12-08T14:34:55.730Z,7.48
2018-12-08T14:37:59.070Z,7.49
2018-12-08T14:41:02.421Z,7.43
2018-12-08T14:44:05.761Z,7.38
2018-12-08T14:47:09.778Z,7.35
2018-12-08T14:50:13.414Z,7.27
2018-12-08T14:53:16.758Z,7.22
2018-12-08T14:56:20.073Z,7.20
2018-12-08T14:59:23.506Z,7.16
2018-12-08T15:02:52.268Z,7.15
2018-12-08T15:05:57.270Z,7.09
2018-12-08T15:09:00.677Z,7.06
2018-12-08T15:12:04.052Z,7.07
2018-12-08T15:15:07.821Z,7.06
2018-12-08T15:18:11.177Z,7.09
2018-12-08T15:21:14.538Z,7.03
2018-12-08T15:24:18.630Z,6.95
2018-12-08T15:27:21.973Z,6.88
2018-12-08T15:30:25.299Z,6.78
2018-12-08T15:33:28.789Z,6.66
2018-12-08T15:36:32.180Z,6.67
2018-12-08T15:39:36.013Z,6.72
2018-12-08T15:42:39.600Z,6.66
2018-12-08T15:45:42.958Z,6.72
2018-12-08T15:48:46.816Z,6.73
2018-12-08T15:51:54.105Z,6.72
2018-12-08T15:54:57.401Z,6.72
2018-12-08T15:58:00.762Z,6.72
2018-12-08T16:01:04.292Z,6.70
2018-12-08T16:04:07.614Z,6.64
2018-12-08T16:07:10.983Z,6.54
2018-12-08T16:10:14.393Z,6.47
2018-12-08T16:13:17.766Z,6.40
2018-12-08T16:16:21.093Z,6.41
2018-12-08T16:19:24.427Z,6.41
2018-12-08T16:22:28.369Z,6.42
2018-12-08T16:25:31.690Z,6.40
2018-12-08T16:28:35.068Z,6.45
2018-12-08T16:31:38.422Z,6.46
2018-12-08T16:34:41.725Z,6.59
2018-12-08T16:37:45.501Z,6.68
2018-12-08T16:40:48.868Z,6.70
2018-12-08T16:43:52.395Z,6.76
2018-12-08T16:46:55.724Z,6.80
2018-12-08T16:49:59.058Z,6.83
2018-12-08T16:53:02.392Z,6.86
2018-12-08T16:56:05.738Z,6.89
2018-12-08T16:59:09.137Z,6.87
2018-12-08T17:02:12.695Z,6.84
2018-12-08T17:05:16.134Z,6.90
2018-12-08T17:08:19.504Z,6.92
2018-12-08T17:11:23.982Z,6.89
2018-12-08T17:14:27.417Z,6.86
2018-12-08T17:17:31.985Z,6.85
2018-12-08T17:20:35.381Z,6.86
2018-12-08T17:23:38.790Z,6.85
2018-12-08T17:26:42.161Z,6.80
2018-12-08T17:29:45.494Z,6.79
2018-12-08T17:32:48.842Z,6.80
2018-12-08T17:35:52.143Z,6.80
2018-12-08T17:38:55.485Z,6.78
2018-12-08T17:41:58.841Z,6.67
2018-12-08T17:45:02.480Z,6.66
2018-12-08T17:48:05.765Z,6.77
2018-12-08T17:51:09.462Z,6.73
2018-12-08T17:54:13.049Z,6.80
2018-12-08T17:57:16.375Z,6.85
2018-12-08T18:00:19.803Z,6.88
2018-12-08T18:03:23.169Z,6.89
2018-12-08T18:06:26.632Z,6.87
2018-12-08T18:09:30.413Z,6.89
2018-12-08T18:12:33.799Z,6.83
2018-12-08T18:15:37.289Z,6.81
2018-12-08T18:18:40.802Z,6.80
2018-12-08T18:21:44.457Z,6.85
2018-12-08T18:24:47.827Z,6.91
2018-12-08T18:27:51.138Z,6.93
2018-12-08T18:30:54.610Z,7.11
2018-12-08T18:33:58.038Z,7.12
2018-12-08T18:37:01.421Z,7.20
2018-12-08T18:40:05.420Z,7.26
2018-12-08T18:43:08.838Z,7.30
2018-12-08T18:46:12.242Z,7.35
2018-12-08T18:49:15.546Z,7.29
2018-12-08T18:52:18.875Z,7.38
2018-12-08T18:55:22.213Z,7.38
2018-12-08T18:58:25.605Z,7.39
2018-12-08T19:01:28.950Z,7.41
2018-12-08T19:04:32.243Z,7.42
2018-12-08T19:07:35.673Z,7.38
2018-12-08T19:10:39.009Z,7.43
2018-12-08T19:13:42.302Z,7.50
2018-12-08T19:16:45.646Z,7.49
2018-12-08T19:19:48.938Z,7.47
2018-12-08T19:22:52.233Z,7.50
2018-12-08T19:25:55.587Z,7.52
2018-12-08T19:28:58.967Z,7.55
2018-12-08T19:32:02.318Z,7.61
2018-12-08T19:35:05.967Z,7.62
2018-12-08T19:38:09.422Z,7.61
2018-12-08T19:41:12.836Z,7.64
2018-12-08T19:44:16.150Z,7.66
2018-12-08T19:47:19.792Z,7.70
2018-12-08T19:50:23.127Z,7.71
2018-12-08T19:53:26.442Z,7.72
2018-12-08T19:56:29.825Z,7.72
2018-12-08T19:59:34.129Z,7.71
2018-12-08T20:02:37.681Z,7.76
2018-12-08T20:05:41.401Z,7.78
2018-12-08T20:08:44.794Z,7.82
2018-12-08T20:11:48.075Z,7.81
2018-12-08T20:14:51.398Z,7.84
2018-12-08T20:17:54.754Z,7.84
2018-12-08T20:20:58.051Z,7.88
2018-12-08T20:24:01.473Z,7.89
2018-12-08T20:27:04.872Z,7.65
2018-12-08T20:30:08.493Z,7.60
2018-12-08T20:33:11.849Z,7.52
2018-12-08T20:36:15.165Z,7.60
2018-12-08T20:39:18.463Z,7.57
2018-12-08T20:42:21.838Z,7.54
2018-12-08T20:45:25.155Z,7.50
2018-12-08T20:48:28.524Z,7.38
2018-12-08T20:51:31.848Z,7.35
2018-12-08T20:54:35.175Z,7.34
2018-12-08T20:57:39.221Z,7.41
2018-12-08T21:00:52.247Z,7.55
2018-12-08T21:03:57.767Z,7.52
2018-12-08T21:07:01.722Z,7.58
2018-12-08T21:10:06.521Z,7.68
2018-12-08T21:13:09.970Z,7.66
2018-12-08T21:16:13.321Z,7.69
2018-12-08T21:19:16.650Z,7.70
2018-12-08T21:22:20.005Z,7.71
2018-12-08T21:25:23.621Z,7.83
2018-12-08T21:28:26.981Z,7.97
2018-12-08T21:31:30.333Z,8.03
2018-12-08T21:34:33.633Z,8.07
2018-12-08T21:37:36.969Z,7.99
2018-12-08T21:40:40.524Z,7.92
2018-12-08T21:43:43.869Z,7.77
2018-12-08T21:46:47.181Z,7.84
2018-12-08T21:49:50.725Z,7.77
2018-12-08T21:52:54.033Z,7.82
2018-12-08T21:55:57.377Z,7.95
2018-12-08T21:59:00.781Z,8.03
2018-12-08T22:02:04.478Z,7.95
2018-12-08T22:05:07.893Z,7.98
2018-12-08T22:08:11.301Z,8.04
2018-12-08T22:11:14.630Z,8.11
2018-12-08T22:14:17.916Z,8.11
2018-12-08T22:17:21.219Z,8.04
2018-12-08T22:20:24.518Z,8.07
2018-12-08T22:23:27.814Z,8.12
2018-12-08T22:26:31.156Z,8.17
2018-12-08T22:29:34.446Z,8.15
2018-12-08T22:32:37.822Z,8.29
2018-12-08T22:35:41.242Z,8.30
2018-12-08T22:38:44.544Z,8.33
2018-12-08T22:41:47.869Z,8.30
2018-12-08T22:44:51.244Z,8.11
2018-12-08T22:47:54.602Z,7.83
2018-12-08T22:50:57.910Z,7.74
2018-12-08T22:54:01.202Z,7.77
2018-12-08T22:57:04.687Z,7.90
2018-12-08T23:03:54.139Z,7.97
2018-12-08T23:07:01.806Z,7.99
2018-12-08T23:10:07.734Z,7.92
2018-12-08T23:13:11.069Z,7.90
2018-12-08T23:16:14.492Z,7.91
2018-12-08T23:19:17.909Z,7.78
2018-12-08T23:22:21.239Z,7.85
2018-12-08T23:25:24.636Z,7.81
2018-12-08T23:28:27.988Z,7.83
2018-12-08T23:31:31.324Z,7.93
2018-12-08T23:34:34.665Z,8.08
2018-12-08T23:37:37.989Z,8.19
2018-12-08T23:40:41.338Z,8.23
2018-12-08T23:43:44.889Z,8.33
2018-12-08T23:46:48.211Z,8.39
2018-12-08T23:49:51.775Z,8.43
2018-12-08T23:52:55.205Z,8.50
2018-12-08T23:55:58.705Z,8.54
2018-12-08T23:59:02.401Z,8.41
